Portada
METAR-TAF:

METAR-TAF

Aeropuertos :

Ibiza, España

Aeropuerto de Ibiza

latitud: 38-52N, longitud: 001-23E, altitud: 7 m

Observación

El informe se hizo hace 24 minutos, a las 21:30 UTC
Viento calma
Temperatura 11°C
Humedad 94%
Presión 1015 hPa
Visibilidad 10 km o más
Escasas nubes a una altura de 2000 ft

METAR: LEIB 222130Z 00000KT 9999 FEW020 11/10 Q1015 NOSIG

Hora: 22:54 (21:54 UTC)

Pronóstico

El informe se hizo hace 1 hora y 54 minutos, a las 20:00 UTC
Pronóstico válido del 22 a las 21 UTC al 23 a las 21 UTC
Viento 6 kt del suroeste
Visibilidad 10 km o más
Escasas nubes a una altura de 1500 ft
Probabilidad 40% :
Temporalmente
del 22 a las 21 UTC al 23 a las 07 UTC
Visibilidad: 2000 m
Cielo nuboso a una altura de 500 ft
neblina

TAF: LEIB 222000Z 2221/2321 22006KT 9999 FEW015 TX21/2312Z TN10/2306Z PROB40 TEMPO 2221/2307 2000 BR BKN005

Observaciones y pronósticos meteorológicos de más de 4000 aeropuertos (mensajes METAR y TAF).

Los puntos amarillos y rojos representan las estaciones disponibles.

Ponga el ratón en el punto deseado para ver el nombre de la estación.

Haga clic para ver las observaciones y los pronósticos meteorológicos.

Para cambiar el mapa : haga clic en los botones verdes con una cruz de color negro para hacer un zoom, en el botón verde con un guión para alejar o en las flechas verdes para mapas adyacentes.


METAR-TAF: